• Join FlightAware (Why Join?)
  • Login
  • US Flag 
01:44PM EDT


 

Airport Tracker/Info


-or-


 

Live Flight TrackerFlight Track Log ✈ RPA3496 ✈ 07-May-2014 ✈ KLGA - KPIT

Flight Track Log - Related Links

Times and Time Zones

All times are in EDT time to prevent confusion due to time zone crossing. See the RPA3496 flight status page for this flight to view local times or setup timezone preferences in your user account.

Time Position Orientation Groundspeed Altitude Reporting Facility
EDT Latitude Longitude Course Direction KTS MPH feet Rate Location/Type
04:14PM 40.7667 -73.8500 269° West 142 163 1,600  Level New York TRACON
04:15PM 40.7167 -73.8333 166° South 202 232 3,700 2,640 Climbing New York TRACON
04:16PM 40.7000 -73.8833 246° West 233 268 6,700 2,220 Climbing New York TRACON
04:18PM 40.7872 -73.9642 325° Northwest 267 307 9,200 2,280 Climbing New York Center
04:18PM 40.8167 -74.0000 317° Northwest 270 311 11,600 3,360 Climbing New York TRACON
04:19PM 40.8167 -74.1000 270° West 272 313 14,600 1,740 Climbing New York TRACON
04:20PM 40.7658 -74.4499 269° West  Level Estimated
04:20PM 40.8000 -74.2000 258° West 311 358 15,100  Level New York TRACON
04:21PM 40.8000 -74.3167 270° West 316 364 15,400 900 Climbing New York TRACON
04:22PM 40.8000 -74.4333 270° West 346 398 16,900 600 Climbing New York TRACON
04:24PM 40.8056 -74.6036 273° West 372 428 17,000  Climbing New York Center
04:25PM 40.8053 -74.7433 270° West 359 413 17,000 600 Level New York Center
04:26PM 40.8053 -74.8614 270° West 359 413 18,200 1,440 Climbing New York Center
04:27PM 40.8044 -75.0039 270° West 359 413 20,000 1,680 Climbing New York Center
04:28PM 40.8017 -75.1353 268° West 365 420 21,600 1,500 Climbing New York Center
04:29PM 40.7797 -75.2764 258° West 365 420 23,000 660 Climbing New York Center
04:30PM 40.7536 -75.4117 256° West 377 434 23,000  Level New York Center
04:31PM 40.7136 -75.5294 246° West 388 447 23,000 300 Level New York Center
04:32PM 40.6647 -75.6544 243° Southwest 393 452 23,600 720 Climbing New York Center
04:33PM 40.6175 -75.7881 245° Southwest 393 452 24,500 1,200 Climbing New York Center
04:34PM 40.5569 -75.9339 241° Southwest 400 460 26,100 1,380 Climbing New York Center
04:35PM 40.5072 -76.0692 244° Southwest 410 472 27,300 900 Climbing New York Center
04:36PM 40.4553 -76.2072 244° Southwest 416 479 28,000 300 Climbing New York Center
04:37PM 40.4008 -76.3419 242° Southwest 416 479 28,000  Level New York Center
04:38PM 40.3603 -76.4503 244° Southwest 416 479 28,000  Level New York Center
04:39PM 40.3144 -76.6236 251° West 416 479 28,000  Level New York Center
04:40PM 40.2781 -76.7675 252° West 416 479 28,000  Level New York Center
04:41PM 40.2394 -76.9108 251° West 416 479 28,000  Level New York Center
04:42PM 40.2047 -77.0547 253° West 416 479 28,000  Level New York Center
04:43PM 40.1675 -77.2008 252° West 421 484 28,000 -360 Level New York Center
04:44PM 40.1064 -77.4406 252° West 419 482 27,100 -1,020 Descending Cleveland Center
04:45PM 40.0692 -77.5822 251° West 418 481 25,300 -1,740 Descending Cleveland Center
04:46PM 40.0336 -77.7203 251° West 410 472 23,500 -1,620 Descending Cleveland Center
04:47PM 39.9989 -77.8514 251° West 395 455 22,000 -780 Descending Cleveland Center
04:48PM 39.9728 -78.0086 258° West 381 438 22,000  Level Cleveland Center
04:49PM 39.9792 -78.1436 274° West 378 435 22,000  Level Cleveland Center
04:50PM 39.9986 -78.2831 280° West 375 432 22,000  Level Cleveland Center
04:52PM 40.0175 -78.4142 281° West 374 430 22,000  Level Cleveland Center
04:53PM 40.0358 -78.5433 281° West 370 426 22,000  Level Cleveland Center
04:54PM 40.0542 -78.6711 281° West 366 421 22,000 -420 Level Cleveland Center
04:55PM 40.0722 -78.8011 280° West 366 421 21,200 -1,320 Descending Cleveland Center
04:56PM 40.0928 -78.9544 280° West 360 414 19,300 -1,680 Descending Cleveland Center
04:57PM 40.1097 -79.0783 280° West 347 399 17,800 -1,380 Descending Cleveland Center
04:58PM 40.1267 -79.1964 281° West 337 388 16,500 -1,440 Descending Cleveland Center
04:59PM 40.1433 -79.3150 280° West 330 380 14,900 -1,500 Descending Cleveland Center
05:00PM 40.1578 -79.4306 279° West 328 377 13,400 -1,380 Descending Cleveland Center
05:01PM 40.1719 -79.5356 280° West 298 343 12,100 -1,440 Descending Cleveland Center
05:02PM 40.1892 -79.6614 280° West 296 341 10,500 -1,020 Descending Cleveland Center
05:03PM 40.2178 -79.7567 291° West 287 330 10,000 -240 Descending Cleveland Center
05:04PM 40.2614 -79.8436 303° West 288 331 10,000  Level Cleveland Center
05:05PM 40.3036 -79.9300 303° West 287 330 10,000 -780 Level Cleveland Center
05:06PM 40.3494 -80.0211 303° West 265 305 8,400 -1,800 Descending Cleveland Center
05:07PM 40.3903 -80.0989 305° West 262 302 6,400 -1,200 Descending Cleveland Center
05:08PM 40.4072 -80.1931 283° West 265 305 6,000 -780 Descending Cleveland Center
05:09PM 40.4239 -80.2792 284° West 263 303 4,800 -1,500 Descending Cleveland Center
05:10PM 40.4408 -80.3703 284° West 262 302 3,000 -900 Descending Cleveland Center
05:11PM 40.4739 -80.4403 302° West 231 266 3,000  Level Cleveland Center
05:12PM 40.5056 -80.4003 44° Northeast 202 232 3,000 -360 Level Cleveland Center
05:13PM 40.5042 -80.3419 92° East 176 203 2,300 -720 Descending Cleveland Center
05:14PM 40.5022 -80.2947 93° East 151 174 1,600 -720 Descending Cleveland Center